createdAt,value
2023-01-21T00:00:13.000Z,52.8
2023-01-21T00:01:30.000Z,46.8
2023-01-21T00:02:46.000Z,48
2023-01-21T00:04:02.000Z,55.9
2023-01-21T00:05:18.000Z,47.3
2023-01-21T00:06:34.000Z,54.9
2023-01-21T00:07:51.000Z,51.5
2023-01-21T00:09:07.000Z,46.6
2023-01-21T00:10:23.000Z,48.3
2023-01-21T00:11:39.000Z,53.3
2023-01-21T00:12:56.000Z,55.5
2023-01-21T00:14:11.000Z,47.9
2023-01-21T00:15:27.000Z,50.2
2023-01-21T00:16:43.000Z,54
2023-01-21T00:18:00.000Z,47.6
2023-01-21T00:19:16.000Z,51.5
2023-01-21T00:20:32.000Z,51.5
2023-01-21T00:21:48.000Z,53
2023-01-21T00:23:05.000Z,55.8
2023-01-21T00:24:21.000Z,52.6
2023-01-21T00:25:37.000Z,56.7
2023-01-21T00:26:53.000Z,55.8
2023-01-21T00:28:09.000Z,57.1
2023-01-21T00:29:24.000Z,53.8
2023-01-21T00:30:39.000Z,53.5
2023-01-21T00:31:54.000Z,47.4
2023-01-21T00:33:11.000Z,52.3
2023-01-21T00:34:27.000Z,62.4
2023-01-21T00:35:43.000Z,66.6
2023-01-21T00:36:59.000Z,61.4
2023-01-21T00:38:15.000Z,65
2023-01-21T00:39:32.000Z,60.7
2023-01-21T00:40:48.000Z,58.9
2023-01-21T00:42:04.000Z,64
2023-01-21T00:43:20.000Z,66.2
2023-01-21T00:44:37.000Z,66.6
2023-01-21T00:45:53.000Z,68.2
2023-01-21T00:47:09.000Z,60.4
2023-01-21T00:48:24.000Z,59
2023-01-21T00:49:41.000Z,76
2023-01-21T00:50:57.000Z,60.7
2023-01-21T00:52:13.000Z,72.4
2023-01-21T00:53:29.000Z,67.2
2023-01-21T00:54:46.000Z,66.6
2023-01-21T00:56:02.000Z,66.4
2023-01-21T00:57:18.000Z,66
2023-01-21T00:58:34.000Z,68.2
2023-01-21T00:59:50.000Z,64.7
2023-01-21T01:01:07.000Z,69.3
2023-01-21T01:02:23.000Z,69.7
2023-01-21T01:03:39.000Z,69.5
2023-01-21T01:04:54.000Z,69.5
2023-01-21T01:06:11.000Z,69.2
2023-01-21T01:07:27.000Z,75.2
2023-01-21T01:08:43.000Z,86.8
2023-01-21T01:09:59.000Z,78.8
2023-01-21T01:11:16.000Z,76.7
2023-01-21T01:12:32.000Z,80.1
2023-01-21T01:13:48.000Z,84.4
2023-01-21T01:15:04.000Z,83.6
2023-01-21T01:16:21.000Z,73.8
2023-01-21T01:17:37.000Z,85.4
2023-01-21T01:18:53.000Z,80.7
2023-01-21T01:20:09.000Z,88.4
2023-01-21T01:21:24.000Z,85.2
2023-01-21T01:22:41.000Z,84.3
2023-01-21T01:23:57.000Z,84.6
2023-01-21T01:25:13.000Z,78.6
2023-01-21T01:26:29.000Z,82.9
2023-01-21T01:27:45.000Z,91.7
2023-01-21T01:29:00.000Z,85.8
2023-01-21T01:30:16.000Z,89.8
2023-01-21T01:31:31.000Z,91.4
2023-01-21T01:32:47.000Z,101
2023-01-21T01:34:03.000Z,93
2023-01-21T01:35:19.000Z,87.5
2023-01-21T01:36:35.000Z,84.8
2023-01-21T01:37:52.000Z,86.4
2023-01-21T01:39:08.000Z,82.4
2023-01-21T01:40:24.000Z,100.3
2023-01-21T01:41:40.000Z,87.8
2023-01-21T01:42:57.000Z,100.4
2023-01-21T01:44:13.000Z,91.6
2023-01-21T01:45:29.000Z,97.7
2023-01-21T01:46:45.000Z,97.4
2023-01-21T01:48:02.000Z,87
2023-01-21T01:49:17.000Z,92.8
2023-01-21T01:50:33.000Z,91.5
2023-01-21T01:51:49.000Z,93.5
2023-01-21T01:53:05.000Z,88.6
2023-01-21T01:54:22.000Z,88.8
2023-01-21T01:55:38.000Z,105.7
2023-01-21T01:56:54.000Z,96.3
2023-01-21T01:58:10.000Z,99.1
2023-01-21T01:59:27.000Z,95.5
2023-01-21T02:00:43.000Z,97.3
2023-01-21T02:01:59.000Z,86.6
2023-01-21T02:03:15.000Z,97.3
2023-01-21T02:04:32.000Z,93.3
2023-01-21T02:05:47.000Z,87.4
2023-01-21T02:07:03.000Z,92.8
2023-01-21T02:08:19.000Z,96.4
2023-01-21T02:09:36.000Z,96.8
2023-01-21T02:10:52.000Z,111.7
2023-01-21T02:12:08.000Z,101.5
2023-01-21T02:13:24.000Z,97.7
2023-01-21T02:14:40.000Z,102.9
2023-01-21T02:15:57.000Z,95.5
2023-01-21T02:17:13.000Z,99.8
2023-01-21T02:18:29.000Z,95.8
2023-01-21T02:19:45.000Z,98.1
2023-01-21T02:21:01.000Z,93.5
2023-01-21T02:22:17.000Z,99.4
2023-01-21T02:23:33.000Z,96
2023-01-21T02:24:49.000Z,93.4
2023-01-21T02:26:06.000Z,92.1
2023-01-21T02:27:22.000Z,88.4
2023-01-21T02:28:38.000Z,98.3
2023-01-21T02:29:54.000Z,93.5
2023-01-21T02:31:11.000Z,96
2023-01-21T02:32:27.000Z,108.1
2023-01-21T02:33:43.000Z,103
2023-01-21T02:34:59.000Z,101.7
2023-01-21T02:36:15.000Z,104.4
2023-01-21T02:37:31.000Z,103.5
2023-01-21T02:38:47.000Z,96.5
2023-01-21T02:40:03.000Z,108.2
2023-01-21T02:41:19.000Z,103.5
2023-01-21T02:42:36.000Z,102.1
2023-01-21T02:43:52.000Z,99.5
2023-01-21T02:45:08.000Z,97.3
2023-01-21T02:46:24.000Z,94.9
2023-01-21T02:47:40.000Z,106.7
2023-01-21T02:48:55.000Z,107.4
2023-01-21T02:50:10.000Z,100.7
2023-01-21T02:51:25.000Z,109.2
2023-01-21T02:52:42.000Z,98.1
2023-01-21T02:53:58.000Z,111.2
2023-01-21T02:55:14.000Z,94.1
2023-01-21T02:56:30.000Z,103.9
2023-01-21T02:57:47.000Z,104.1
2023-01-21T02:59:03.000Z,110.1
2023-01-21T03:00:19.000Z,92.5
2023-01-21T03:01:35.000Z,96.5
2023-01-21T03:02:52.000Z,104
2023-01-21T03:04:08.000Z,101.8
2023-01-21T03:05:24.000Z,100.2
2023-01-21T03:06:40.000Z,97.3
2023-01-21T03:07:55.000Z,107.3
2023-01-21T03:09:12.000Z,106
2023-01-21T03:10:28.000Z,97.6
2023-01-21T03:11:44.000Z,103
2023-01-21T03:13:00.000Z,113
2023-01-21T03:14:17.000Z,111.7
2023-01-21T03:15:33.000Z,108.3
2023-01-21T03:16:48.000Z,104.7
2023-01-21T03:18:03.000Z,108.9
2023-01-21T03:19:20.000Z,110.8
2023-01-21T03:20:35.000Z,114.9
2023-01-21T03:21:50.000Z,101.3
2023-01-21T03:23:06.000Z,106.8
2023-01-21T03:24:23.000Z,109.5
2023-01-21T03:25:39.000Z,114.2
2023-01-21T03:26:55.000Z,101.9
2023-01-21T03:28:11.000Z,108.8
2023-01-21T03:29:28.000Z,106.9
2023-01-21T03:30:44.000Z,114.4
2023-01-21T03:32:00.000Z,110.9
2023-01-21T03:33:16.000Z,106.3
2023-01-21T03:34:33.000Z,113.9
2023-01-21T03:35:49.000Z,111.8
2023-01-21T03:37:05.000Z,105.6
2023-01-21T03:38:20.000Z,109.7
2023-01-21T03:39:36.000Z,106.3
2023-01-21T03:40:53.000Z,94
2023-01-21T03:42:09.000Z,95.9
2023-01-21T03:43:25.000Z,108
2023-01-21T03:44:41.000Z,97.9
2023-01-21T03:45:58.000Z,102.6
2023-01-21T03:47:13.000Z,103.1
2023-01-21T03:48:28.000Z,97.1
2023-01-21T03:49:44.000Z,93.9
2023-01-21T03:51:00.000Z,108.8
2023-01-21T03:52:15.000Z,100.2
2023-01-21T03:53:31.000Z,91.8
2023-01-21T03:54:47.000Z,102.7
2023-01-21T03:56:04.000Z,97
2023-01-21T03:57:20.000Z,103.4
2023-01-21T03:58:36.000Z,103.7
2023-01-21T03:59:52.000Z,89.4
2023-01-21T04:01:09.000Z,98.9
2023-01-21T04:02:25.000Z,96.7
2023-01-21T04:03:41.000Z,93.3
2023-01-21T04:04:57.000Z,107.4
2023-01-21T04:06:13.000Z,89.5
2023-01-21T04:07:30.000Z,99.7
2023-01-21T04:08:45.000Z,92.5
2023-01-21T04:10:01.000Z,99.9
2023-01-21T04:11:17.000Z,97.8
2023-01-21T04:12:34.000Z,96.9
2023-01-21T04:13:50.000Z,102.9
2023-01-21T04:15:06.000Z,93.8
2023-01-21T04:16:22.000Z,100.8
2023-01-21T04:17:38.000Z,99
2023-01-21T04:18:53.000Z,110.2
2023-01-21T04:20:09.000Z,101
2023-01-21T04:21:24.000Z,92.1
2023-01-21T04:22:40.000Z,102.1
2023-01-21T04:23:56.000Z,100.1
2023-01-21T04:25:12.000Z,104.5
2023-01-21T04:26:28.000Z,105.9
2023-01-21T04:27:45.000Z,106.1
2023-01-21T04:29:01.000Z,104.7
2023-01-21T04:30:17.000Z,104
2023-01-21T04:31:33.000Z,101.9
2023-01-21T04:32:50.000Z,99.6
2023-01-21T04:34:06.000Z,109
2023-01-21T04:35:22.000Z,99.1
2023-01-21T04:36:38.000Z,96.5
2023-01-21T04:37:54.000Z,101.1
2023-01-21T04:39:10.000Z,110.6
2023-01-21T04:40:26.000Z,94.8
2023-01-21T04:41:42.000Z,108.3
2023-01-21T04:42:58.000Z,98.5
2023-01-21T04:44:15.000Z,98.6
2023-01-21T04:45:31.000Z,99.6
2023-01-21T04:46:47.000Z,97.2
2023-01-21T04:48:02.000Z,83.8
2023-01-21T04:49:18.000Z,101.4
2023-01-21T04:50:34.000Z,92.2
2023-01-21T04:51:50.000Z,95.4
2023-01-21T04:53:05.000Z,101.5
2023-01-21T04:54:21.000Z,87.1
2023-01-21T04:55:37.000Z,93.9
2023-01-21T04:56:53.000Z,105.1
2023-01-21T04:58:09.000Z,99
2023-01-21T04:59:26.000Z,88.8
2023-01-21T05:00:42.000Z,87.8
2023-01-21T05:01:58.000Z,96.5
2023-01-21T05:03:14.000Z,101.4
2023-01-21T05:04:31.000Z,98.3
2023-01-21T05:05:47.000Z,88.8
2023-01-21T05:07:03.000Z,96.5
2023-01-21T05:08:19.000Z,95.4
2023-01-21T05:09:35.000Z,89.5
2023-01-21T05:10:51.000Z,103.1
2023-01-21T05:12:07.000Z,111.9
2023-01-21T05:13:23.000Z,106.3
2023-01-21T05:14:39.000Z,93
2023-01-21T05:15:56.000Z,96.7
2023-01-21T05:17:12.000Z,95.4
2023-01-21T05:18:28.000Z,104.1
2023-01-21T05:19:43.000Z,105.4
2023-01-21T05:20:59.000Z,91.4
2023-01-21T05:22:14.000Z,103.9
2023-01-21T05:23:29.000Z,103.9
2023-01-21T05:24:45.000Z,100.4
2023-01-21T05:26:02.000Z,104.1
2023-01-21T05:27:18.000Z,104.4
2023-01-21T05:28:34.000Z,115.4
2023-01-21T05:29:50.000Z,106.9
2023-01-21T05:31:07.000Z,114.5
2023-01-21T05:32:23.000Z,114.1
2023-01-21T05:33:39.000Z,113.2
2023-01-21T05:34:55.000Z,116
2023-01-21T05:36:11.000Z,104.6
2023-01-21T05:37:28.000Z,119.1
2023-01-21T05:38:44.000Z,107.5
2023-01-21T05:39:59.000Z,113.2
2023-01-21T05:41:15.000Z,101.6
2023-01-21T05:42:32.000Z,104.6
2023-01-21T05:43:48.000Z,116.4
2023-01-21T05:45:04.643Z,108.7
2023-01-21T05:46:20.000Z,120.2
2023-01-21T05:47:37.000Z,102.5
2023-01-21T05:48:52.000Z,109.5
2023-01-21T05:50:07.000Z,115.6
2023-01-21T05:51:23.000Z,115.3
2023-01-21T05:52:40.000Z,109.4
2023-01-21T05:53:55.000Z,111.9
2023-01-21T05:55:10.000Z,120.5
2023-01-21T05:56:26.000Z,112.7
2023-01-21T05:57:43.000Z,108.9
2023-01-21T05:58:59.000Z,104.5
2023-01-21T06:00:15.000Z,120.5
2023-01-21T06:01:31.000Z,112.5
2023-01-21T06:02:48.000Z,108.5
2023-01-21T06:04:04.000Z,111.9
2023-01-21T06:05:20.000Z,109.7
2023-01-21T06:06:36.000Z,118.1
2023-01-21T06:07:52.000Z,112.2
2023-01-21T06:09:09.000Z,100.1
2023-01-21T06:10:25.000Z,104.3
2023-01-21T06:11:40.000Z,93.8
2023-01-21T06:12:56.000Z,113.1
2023-01-21T06:14:13.000Z,110
2023-01-21T06:15:29.000Z,108.8
2023-01-21T06:16:45.000Z,101.8
2023-01-21T06:18:01.000Z,102.9
2023-01-21T06:19:18.000Z,100.2
2023-01-21T06:20:33.000Z,98
2023-01-21T06:21:48.000Z,108
2023-01-21T06:23:03.000Z,102.8
2023-01-21T06:24:19.000Z,104.7
2023-01-21T06:25:35.000Z,102.9
2023-01-21T06:26:51.000Z,95.3
2023-01-21T06:28:07.000Z,99.4
2023-01-21T06:29:24.000Z,95.1
2023-01-21T06:30:40.000Z,95.8
2023-01-21T06:31:56.000Z,105.1
2023-01-21T06:33:12.000Z,98.1
2023-01-21T06:34:28.000Z,84.4
2023-01-21T06:35:44.000Z,93
2023-01-21T06:37:00.000Z,96.9
2023-01-21T06:38:16.000Z,97.1
2023-01-21T06:39:32.000Z,94.9
2023-01-21T06:40:49.000Z,94.3
2023-01-21T06:42:05.000Z,92.3
2023-01-21T06:43:21.000Z,89
2023-01-21T06:44:37.000Z,101.1
2023-01-21T06:45:54.000Z,93.1
2023-01-21T06:47:10.000Z,86.1
2023-01-21T06:48:26.000Z,93.3
2023-01-21T06:49:41.000Z,87.2
2023-01-21T06:50:57.000Z,84.1
2023-01-21T06:52:13.000Z,95.6
2023-01-21T06:53:29.000Z,87.2
2023-01-21T06:54:44.000Z,87
2023-01-21T06:56:00.000Z,91.4
2023-01-21T06:57:16.000Z,96
2023-01-21T06:58:32.000Z,94.5
2023-01-21T06:59:48.000Z,91.3
2023-01-21T07:01:05.000Z,88.9
2023-01-21T07:02:21.000Z,85.9
2023-01-21T07:03:37.000Z,93
2023-01-21T07:04:53.000Z,93.7
2023-01-21T07:06:09.000Z,90.9
2023-01-21T07:07:26.000Z,96.4
2023-01-21T07:08:42.000Z,87.9
2023-01-21T07:09:58.000Z,88.4
2023-01-21T07:11:14.000Z,90.1
2023-01-21T07:12:30.000Z,98.1
2023-01-21T07:13:46.000Z,88.9
2023-01-21T07:15:02.000Z,94.4
2023-01-21T07:16:18.000Z,91.5
2023-01-21T07:17:35.000Z,90.3
2023-01-21T07:18:51.000Z,94.7
2023-01-21T07:20:07.000Z,91.8
2023-01-21T07:21:22.000Z,90.1
2023-01-21T07:22:38.000Z,92.7
2023-01-21T07:23:54.000Z,85.6
2023-01-21T07:25:09.000Z,91
2023-01-21T07:26:24.000Z,95.2
2023-01-21T07:27:41.000Z,90
2023-01-21T07:28:57.000Z,93.3
2023-01-21T07:30:13.000Z,96
2023-01-21T07:31:29.000Z,90.1
2023-01-21T07:32:46.000Z,92
2023-01-21T07:34:02.000Z,88.6
2023-01-21T07:35:18.000Z,97.2
2023-01-21T07:36:34.000Z,87.3
2023-01-21T07:37:50.000Z,91.6
2023-01-21T07:39:07.000Z,92.1
2023-01-21T07:40:23.000Z,84.3
2023-01-21T07:41:39.000Z,89
2023-01-21T07:42:54.000Z,83.9
2023-01-21T07:44:11.000Z,89.3
2023-01-21T07:45:27.000Z,86.6
2023-01-21T07:46:43.000Z,88.1
2023-01-21T07:47:59.000Z,93
2023-01-21T07:49:16.000Z,88.8
2023-01-21T07:50:32.000Z,94.6
2023-01-21T07:51:47.000Z,86.2
2023-01-21T07:53:02.000Z,78.8
2023-01-21T07:54:18.000Z,88.3
2023-01-21T07:55:33.000Z,92.4
2023-01-21T07:56:49.000Z,88.4
2023-01-21T07:58:05.000Z,88
2023-01-21T07:59:22.000Z,91.6
2023-01-21T08:00:38.000Z,86.5
2023-01-21T08:01:54.000Z,95.9
2023-01-21T08:03:10.000Z,88.4
2023-01-21T08:04:26.000Z,89.9
2023-01-21T08:05:43.000Z,81.6
2023-01-21T08:06:59.000Z,89.3
2023-01-21T08:08:15.000Z,90.1
2023-01-21T08:09:31.000Z,90
2023-01-21T08:10:48.000Z,85.8
2023-01-21T08:12:03.000Z,89.9
2023-01-21T08:13:19.000Z,82.5
2023-01-21T08:14:35.000Z,90.6
2023-01-21T08:15:52.000Z,90.3
2023-01-21T08:17:08.000Z,83
2023-01-21T08:18:24.000Z,87.7
2023-01-21T08:19:40.000Z,78
2023-01-21T08:20:57.000Z,80.9
2023-01-21T08:22:13.000Z,88.1
2023-01-21T08:23:29.000Z,83.7
2023-01-21T08:24:45.000Z,81.8
2023-01-21T08:26:01.000Z,78.1
2023-01-21T08:27:18.000Z,83
2023-01-21T08:28:33.000Z,75
2023-01-21T08:29:49.000Z,76.7
2023-01-21T08:31:05.000Z,78.8
2023-01-21T08:32:22.000Z,84.6
2023-01-21T08:33:38.000Z,77.5
2023-01-21T08:34:54.000Z,79.9
2023-01-21T08:36:10.000Z,82.8
2023-01-21T08:37:27.000Z,83.6
2023-01-21T08:38:43.000Z,83.7
2023-01-21T08:39:59.000Z,81.9
2023-01-21T08:41:15.000Z,75.8
2023-01-21T08:42:32.000Z,81.2
2023-01-21T08:43:48.000Z,82
2023-01-21T08:45:03.000Z,76.7
2023-01-21T08:46:19.000Z,87.3
2023-01-21T08:47:36.000Z,74.7
2023-01-21T08:48:51.000Z,78.5
2023-01-21T08:50:06.000Z,81.4
2023-01-21T08:51:21.000Z,85.6
2023-01-21T08:52:37.000Z,73
2023-01-21T08:53:53.000Z,75.3
2023-01-21T08:55:09.000Z,71.2
2023-01-21T08:56:25.000Z,81.8
2023-01-21T08:57:41.000Z,75.4
2023-01-21T08:58:58.000Z,78.5
2023-01-21T09:00:14.000Z,71.8
2023-01-21T09:01:30.000Z,76.9
2023-01-21T09:02:46.000Z,68
2023-01-21T09:04:03.000Z,79.7
2023-01-21T09:05:19.000Z,70.8
2023-01-21T09:06:35.000Z,71.5
2023-01-21T09:07:51.000Z,70.8
2023-01-21T09:09:07.000Z,64.7
2023-01-21T09:10:23.000Z,66.6
2023-01-21T09:11:39.000Z,67.9
2023-01-21T09:12:55.000Z,70.8
2023-01-21T09:14:12.000Z,63.7
2023-01-21T09:15:28.000Z,64.9
2023-01-21T09:16:44.000Z,65.2
2023-01-21T09:18:00.000Z,69.7
2023-01-21T09:19:16.000Z,68.4
2023-01-21T09:20:31.000Z,63.6
2023-01-21T09:21:46.000Z,65.6
2023-01-21T09:23:01.000Z,59.6
2023-01-21T09:24:18.000Z,68.2
2023-01-21T09:25:34.000Z,72.2
2023-01-21T09:26:50.000Z,63.4
2023-01-21T09:28:06.000Z,63.9
2023-01-21T09:29:22.000Z,62.3
2023-01-21T09:30:39.000Z,63.1
2023-01-21T09:31:55.000Z,58.3
2023-01-21T09:33:11.000Z,66.1
2023-01-21T09:34:27.000Z,63.3
2023-01-21T09:35:44.000Z,58.4
2023-01-21T09:37:00.000Z,59.6
2023-01-21T09:38:16.000Z,60.1
2023-01-21T09:39:31.000Z,57.2
2023-01-21T09:40:48.000Z,62.2
2023-01-21T09:42:04.000Z,60.5
2023-01-21T09:43:20.000Z,56.2
2023-01-21T09:44:36.000Z,51.7
2023-01-21T09:45:53.000Z,54.9
2023-01-21T09:47:09.000Z,52.7
2023-01-21T09:48:24.000Z,51.1
2023-01-21T09:49:39.000Z,57.3
2023-01-21T09:50:56.000Z,61.8
2023-01-21T09:52:11.000Z,51.7
2023-01-21T09:53:26.000Z,58.8
2023-01-21T09:54:42.000Z,60
2023-01-21T09:55:59.000Z,55.3
2023-01-21T09:57:15.000Z,53.7
2023-01-21T09:58:31.000Z,53.8
2023-01-21T09:59:47.000Z,54.2
2023-01-21T10:01:03.000Z,50.9
2023-01-21T10:02:20.000Z,51
2023-01-21T10:03:36.000Z,54.4
2023-01-21T10:04:52.000Z,55.3
2023-01-21T10:06:08.000Z,49.5
2023-01-21T10:07:25.000Z,54.8
2023-01-21T10:08:41.000Z,51.8
2023-01-21T10:09:56.000Z,55.5
2023-01-21T10:11:12.000Z,51.6
2023-01-21T10:12:29.000Z,50
2023-01-21T10:13:45.000Z,60.4
2023-01-21T10:15:01.000Z,53.4
2023-01-21T10:16:17.000Z,46.9
2023-01-21T10:17:33.000Z,52.5
2023-01-21T10:18:50.000Z,50.3
2023-01-21T10:20:06.000Z,51.8
2023-01-21T10:21:22.000Z,52.7
2023-01-21T10:22:38.000Z,50.6
2023-01-21T10:23:54.000Z,47.8
2023-01-21T10:25:09.000Z,51.2
2023-01-21T10:26:24.000Z,52.7
2023-01-21T10:27:39.000Z,51.4
2023-01-21T10:28:56.000Z,47.3
2023-01-21T10:30:12.000Z,49.5
2023-01-21T10:31:28.000Z,46.1
2023-01-21T10:32:44.000Z,50
2023-01-21T10:34:01.000Z,46.1
2023-01-21T10:35:17.000Z,48
2023-01-21T10:36:33.000Z,44.9
2023-01-21T10:37:49.000Z,44.7
2023-01-21T10:39:06.000Z,49.4
2023-01-21T10:40:22.000Z,42.5
2023-01-21T10:41:38.000Z,44.3
2023-01-21T10:42:54.000Z,50.5
2023-01-21T10:44:10.000Z,52.5
2023-01-21T10:45:26.000Z,45.1
2023-01-21T10:46:42.000Z,44.8
2023-01-21T10:47:58.000Z,48.7
2023-01-21T10:49:14.000Z,48.4
2023-01-21T10:50:30.000Z,41.9
2023-01-21T10:51:46.000Z,47.1
2023-01-21T10:53:02.000Z,47
2023-01-21T10:54:18.000Z,41.4
2023-01-21T10:55:35.000Z,41.5
2023-01-21T10:56:51.000Z,40.4
2023-01-21T10:58:07.000Z,46.3
2023-01-21T10:59:23.000Z,49
2023-01-21T11:00:40.000Z,41.7
2023-01-21T11:01:56.000Z,42.6
2023-01-21T11:03:12.000Z,46.1
2023-01-21T11:04:28.000Z,47.8
2023-01-21T11:05:45.000Z,43.6
2023-01-21T11:07:00.000Z,51.5
2023-01-21T11:08:16.000Z,47.7
2023-01-21T11:09:32.000Z,43.5
2023-01-21T11:10:48.000Z,41.5
2023-01-21T11:12:05.000Z,48.8
2023-01-21T11:13:21.000Z,47
2023-01-21T11:14:37.000Z,54.6
2023-01-21T11:15:53.000Z,49.9
2023-01-21T11:17:10.000Z,43.8
2023-01-21T11:18:26.000Z,47.1
2023-01-21T11:19:42.000Z,47.5
2023-01-21T11:20:58.000Z,48.1
2023-01-21T11:22:15.000Z,45
2023-01-21T11:23:30.000Z,47.3
2023-01-21T11:24:46.000Z,44.7
2023-01-21T11:26:02.000Z,55.7
2023-01-21T11:27:18.000Z,46.7
2023-01-21T11:28:33.000Z,44.2
2023-01-21T11:29:48.000Z,46.4
2023-01-21T11:31:03.000Z,49.5
2023-01-21T11:32:20.000Z,48.4
2023-01-21T11:33:36.000Z,52.6
2023-01-21T11:34:52.000Z,44.8
2023-01-21T11:36:08.000Z,44.5
2023-01-21T11:37:25.000Z,48.1
2023-01-21T11:38:41.000Z,45.2
2023-01-21T11:39:57.000Z,52.1
2023-01-21T11:41:13.000Z,45.4
2023-01-21T11:42:29.000Z,45.6
2023-01-21T11:43:46.000Z,49.7
2023-01-21T11:45:02.000Z,47.8
2023-01-21T11:46:18.000Z,44.4
2023-01-21T11:47:33.000Z,54.5
2023-01-21T11:48:50.000Z,57.7
2023-01-21T11:50:06.000Z,55.7
2023-01-21T11:51:22.000Z,53.6
2023-01-21T11:52:38.000Z,46.6
2023-01-21T11:53:55.000Z,53.2
2023-01-21T11:55:11.000Z,54.3
2023-01-21T11:56:27.000Z,54
2023-01-21T11:57:43.000Z,56.6
2023-01-21T11:59:00.000Z,50.6
2023-01-21T12:00:16.000Z,45.1
2023-01-21T12:01:32.000Z,52.1
2023-01-21T12:02:48.000Z,51.7
2023-01-21T12:04:03.000Z,53.7
2023-01-21T12:05:20.000Z,57.4
2023-01-21T12:06:36.000Z,52
2023-01-21T12:07:52.000Z,50.1
2023-01-21T12:09:08.000Z,63.2
2023-01-21T12:10:25.000Z,52
2023-01-21T12:11:41.000Z,52.6
2023-01-21T12:12:57.000Z,48.8
2023-01-21T12:14:13.000Z,51.1
2023-01-21T12:15:30.000Z,49.1
2023-01-21T12:16:46.000Z,50.8
2023-01-21T12:18:02.000Z,55.7
2023-01-21T12:19:18.000Z,47.9
2023-01-21T12:20:34.000Z,52.2
2023-01-21T12:21:50.000Z,56.7
2023-01-21T12:23:06.000Z,48.9
2023-01-21T12:24:22.000Z,49.3
2023-01-21T12:25:38.000Z,51.8
2023-01-21T12:26:55.000Z,60.4
2023-01-21T12:28:11.000Z,60.6
2023-01-21T12:29:27.000Z,51.6
2023-01-21T12:30:43.000Z,49.5
2023-01-21T12:32:00.000Z,50.5
2023-01-21T12:33:16.000Z,48.3
2023-01-21T12:34:32.000Z,53.9
2023-01-21T12:35:48.000Z,50.5
2023-01-21T12:37:04.000Z,46
2023-01-21T12:38:20.000Z,44.2
2023-01-21T12:39:36.000Z,53.2
2023-01-21T12:40:52.000Z,48.1
2023-01-21T12:42:09.000Z,46.3
2023-01-21T12:43:25.000Z,53.2
2023-01-21T12:44:41.000Z,55.2
2023-01-21T12:45:57.000Z,51.2
2023-01-21T12:47:13.000Z,44.2
2023-01-21T12:48:30.000Z,46
2023-01-21T12:49:46.000Z,53.8
2023-01-21T12:51:02.000Z,53.3
2023-01-21T12:52:18.000Z,47.5
2023-01-21T12:53:34.000Z,49.6
2023-01-21T12:54:50.000Z,52.7
2023-01-21T12:56:06.000Z,51.6
2023-01-21T12:57:22.000Z,53
2023-01-21T12:58:39.000Z,53.2
2023-01-21T12:59:55.000Z,52.4
2023-01-21T13:01:11.000Z,51.8
2023-01-21T13:02:27.000Z,51.9
2023-01-21T13:03:44.000Z,52.3
2023-01-21T13:05:00.000Z,46.4
2023-01-21T13:06:16.000Z,48.1
2023-01-21T13:07:32.000Z,42.3
2023-01-21T13:08:48.000Z,56.4
2023-01-21T13:10:04.000Z,50.4
2023-01-21T13:11:20.000Z,48.1
2023-01-21T13:12:36.000Z,46.9
2023-01-21T13:13:52.000Z,40.7
2023-01-21T13:15:09.000Z,55.7
2023-01-21T13:16:25.000Z,47
2023-01-21T13:17:41.000Z,50.9
2023-01-21T13:18:57.000Z,51.9
2023-01-21T13:20:14.000Z,49.8
2023-01-21T13:21:30.000Z,48.5
2023-01-21T13:22:46.000Z,49.5
2023-01-21T13:24:02.000Z,44.6
2023-01-21T13:25:19.000Z,48.5
2023-01-21T13:26:34.000Z,42.5
2023-01-21T13:27:50.000Z,42.4
2023-01-21T13:29:06.000Z,46.9
2023-01-21T13:30:22.000Z,50.9
2023-01-21T13:31:39.000Z,49
2023-01-21T13:32:55.000Z,48.3
2023-01-21T13:34:11.000Z,44.4
2023-01-21T13:35:27.000Z,45.2
2023-01-21T13:36:44.000Z,40.7
2023-01-21T13:38:00.000Z,49.2
2023-01-21T13:39:16.000Z,41.3
2023-01-21T13:40:32.000Z,45.7
2023-01-21T13:41:49.000Z,41
2023-01-21T13:43:04.000Z,38.3
2023-01-21T13:44:20.000Z,44.7
2023-01-21T13:45:36.000Z,42
2023-01-21T13:46:53.000Z,41.5
2023-01-21T13:48:09.000Z,35.2
2023-01-21T13:49:25.000Z,39.7
2023-01-21T13:50:41.000Z,42.7
2023-01-21T13:51:57.000Z,35
2023-01-21T13:53:14.000Z,37.6
2023-01-21T13:54:30.000Z,38
2023-01-21T13:55:46.000Z,39.7
2023-01-21T13:57:02.000Z,39.2
2023-01-21T13:58:19.000Z,44.1
2023-01-21T13:59:34.000Z,36.5
2023-01-21T14:00:50.000Z,40.2
2023-01-21T14:02:06.000Z,35.5
2023-01-21T14:03:23.000Z,35.8
2023-01-21T14:04:39.000Z,36.6
2023-01-21T14:05:55.000Z,45.8
2023-01-21T14:07:11.000Z,39.7
2023-01-21T14:08:28.000Z,39.4
2023-01-21T14:09:44.000Z,38
2023-01-21T14:11:00.000Z,42.5
2023-01-21T14:12:16.000Z,44.9
2023-01-21T14:13:32.000Z,42.6
2023-01-21T14:14:49.000Z,45.4
2023-01-21T14:16:04.000Z,36.6
2023-01-21T14:17:20.000Z,54.1
2023-01-21T14:18:36.000Z,47
2023-01-21T14:19:53.000Z,44.8
2023-01-21T14:21:09.000Z,42.6
2023-01-21T14:22:25.000Z,42.5
2023-01-21T14:23:41.000Z,41.8
2023-01-21T14:24:58.000Z,42.4
2023-01-21T14:26:14.000Z,45.8
2023-01-21T14:27:30.000Z,43.9
2023-01-21T14:28:46.000Z,47.1
2023-01-21T14:30:03.000Z,46.7
2023-01-21T14:31:19.000Z,46.7
2023-01-21T14:32:34.000Z,46.8
2023-01-21T14:33:50.000Z,42.8
2023-01-21T14:35:06.000Z,38.3
2023-01-21T14:36:23.000Z,48.7
2023-01-21T14:37:39.000Z,43.3
2023-01-21T14:38:55.000Z,43.1
2023-01-21T14:40:11.000Z,43.1
2023-01-21T14:41:28.000Z,36.2
2023-01-21T14:42:44.000Z,43
2023-01-21T14:44:00.000Z,39
2023-01-21T14:45:16.000Z,39.7
2023-01-21T14:46:33.000Z,41.2
2023-01-21T14:47:49.000Z,43.9
2023-01-21T14:49:04.000Z,44.6
2023-01-21T14:50:20.000Z,39.2
2023-01-21T14:51:37.000Z,42.8
2023-01-21T14:52:53.000Z,47.1
2023-01-21T14:54:09.000Z,42.8
2023-01-21T14:55:25.000Z,45.5
2023-01-21T14:56:41.000Z,43.2
2023-01-21T14:57:58.000Z,44
2023-01-21T14:59:14.000Z,44.6
2023-01-21T15:00:30.000Z,39.4
2023-01-21T15:01:46.000Z,49.1
2023-01-21T15:03:03.000Z,49.5
2023-01-21T15:04:19.000Z,46.9
2023-01-21T15:05:34.000Z,54
2023-01-21T15:06:50.000Z,42.9
2023-01-21T15:08:07.000Z,47
2023-01-21T15:09:23.000Z,46.8
2023-01-21T15:10:39.000Z,51
2023-01-21T15:11:55.000Z,51.1
2023-01-21T15:13:12.000Z,54.1
2023-01-21T15:14:28.000Z,47.4
2023-01-21T15:15:44.000Z,51.6
2023-01-21T15:17:00.000Z,52.2
2023-01-21T15:18:16.000Z,52.6
2023-01-21T15:19:31.000Z,43.3
2023-01-21T15:20:46.000Z,50.1
2023-01-21T15:22:01.000Z,59.1
2023-01-21T15:23:18.000Z,46.2
2023-01-21T15:24:34.000Z,51.4
2023-01-21T15:25:50.000Z,45.2
2023-01-21T15:27:06.000Z,53.1
2023-01-21T15:28:22.000Z,54.6
2023-01-21T15:29:39.000Z,52.2
2023-01-21T15:30:55.000Z,47.7
2023-01-21T15:32:11.000Z,44.6
2023-01-21T15:33:27.000Z,50.9
2023-01-21T15:34:44.000Z,47.6
2023-01-21T15:36:00.000Z,48.2
2023-01-21T15:37:16.000Z,55.2
2023-01-21T15:38:31.000Z,50.1
2023-01-21T15:39:48.000Z,52.9
2023-01-21T15:41:04.000Z,47
2023-01-21T15:42:20.000Z,52.8
2023-01-21T15:43:36.000Z,52.3
2023-01-21T15:44:53.000Z,49.9
2023-01-21T15:46:09.000Z,58.2
2023-01-21T15:47:25.000Z,52.4
2023-01-21T15:48:41.000Z,51.8
2023-01-21T15:49:57.000Z,51.7
2023-01-21T15:51:14.000Z,49.4
2023-01-21T15:52:30.000Z,58.2
2023-01-21T15:53:46.000Z,56.9
2023-01-21T15:55:01.000Z,48.2
2023-01-21T15:56:18.000Z,49.9
2023-01-21T15:57:34.000Z,56.8
2023-01-21T15:58:50.000Z,58.5
2023-01-21T16:00:06.000Z,50.6
2023-01-21T16:01:23.000Z,58
2023-01-21T16:02:39.000Z,56.1
2023-01-21T16:03:55.000Z,56.2
2023-01-21T16:05:11.000Z,53.1
2023-01-21T16:06:28.000Z,53.2
2023-01-21T16:07:44.000Z,50.8
2023-01-21T16:09:00.000Z,52.8
2023-01-21T16:10:16.000Z,53.4
2023-01-21T16:11:31.000Z,56
2023-01-21T16:12:48.000Z,52.8
2023-01-21T16:14:04.000Z,54.8
2023-01-21T16:15:20.000Z,51.7
2023-01-21T16:16:36.000Z,50.8
2023-01-21T16:17:53.000Z,55.5
2023-01-21T16:19:09.000Z,57.1
2023-01-21T16:20:25.000Z,58
2023-01-21T16:21:41.000Z,61.2
2023-01-21T16:22:58.000Z,55.4
2023-01-21T16:24:14.000Z,53.4
2023-01-21T16:25:30.000Z,53.1
2023-01-21T16:26:46.000Z,49.8
2023-01-21T16:28:02.000Z,51.2
2023-01-21T16:29:18.000Z,50.6
2023-01-21T16:30:34.000Z,45.5
2023-01-21T16:31:50.000Z,44.4
2023-01-21T16:33:06.000Z,51.9
2023-01-21T16:34:23.000Z,47.4
2023-01-21T16:35:39.000Z,50.4
2023-01-21T16:36:55.000Z,43.8
2023-01-21T16:38:11.000Z,48.1
2023-01-21T16:39:28.000Z,51.1
2023-01-21T16:40:44.000Z,46.5
2023-01-21T16:42:00.000Z,46.4
2023-01-21T16:43:16.000Z,50.1
2023-01-21T16:44:32.000Z,48.4
2023-01-21T16:45:48.000Z,57
2023-01-21T16:47:03.000Z,44.3
2023-01-21T16:48:18.000Z,48.9
2023-01-21T16:49:35.000Z,45.5
2023-01-21T16:50:50.000Z,37.8
2023-01-21T16:52:05.000Z,40.1
2023-01-21T16:53:21.000Z,41.6